createdAt,value
2019-05-08T00:00:32.438Z,75.55
2019-05-08T00:01:32.430Z,72.67
2019-05-08T00:02:32.556Z,68.35
2019-05-08T00:03:32.951Z,69.73
2019-05-08T00:04:31.919Z,67.08
2019-05-08T00:05:32.501Z,65.47
2019-05-08T00:06:32.614Z,65.09
2019-05-08T00:07:31.485Z,64.04
2019-05-08T00:08:32.043Z,63.95
2019-05-08T00:09:32.239Z,64.23
2019-05-08T00:10:32.023Z,65.84
2019-05-08T00:11:32.081Z,63.57
2019-05-08T00:12:32.166Z,67.93
2019-05-08T00:13:32.142Z,72.00
2019-05-08T00:14:31.913Z,88.44
2019-05-08T00:15:31.932Z,88.25
2019-05-08T00:16:32.758Z,95.22
2019-05-08T00:17:32.014Z,94.37
2019-05-08T00:18:32.379Z,99.99
2019-05-08T00:19:32.215Z,99.99
2019-05-08T00:20:32.101Z,99.99
2019-05-08T00:21:32.340Z,99.99
2019-05-08T00:22:32.440Z,99.99
2019-05-08T00:23:32.411Z,99.99
2019-05-08T00:24:32.172Z,99.99
2019-05-08T00:25:32.581Z,99.99
2019-05-08T00:26:30.446Z,99.99
2019-05-08T00:27:32.863Z,99.99
2019-05-08T00:28:32.934Z,99.99
2019-05-08T00:29:32.634Z,99.99
2019-05-08T00:30:32.808Z,99.99
2019-05-08T00:31:32.685Z,99.99
2019-05-08T00:32:30.418Z,99.99
2019-05-08T00:33:32.642Z,99.99
2019-05-08T00:34:32.180Z,99.99
2019-05-08T00:35:32.622Z,99.99
2019-05-08T00:36:32.074Z,99.99
2019-05-08T00:37:31.830Z,99.99
2019-05-08T00:38:32.403Z,99.99
2019-05-08T00:39:32.410Z,99.99
2019-05-08T00:40:32.550Z,99.99
2019-05-08T00:41:32.758Z,99.99
2019-05-08T00:42:32.250Z,99.99
2019-05-08T00:43:32.786Z,99.99
2019-05-08T00:44:31.819Z,99.99
2019-05-08T00:45:32.414Z,99.99
2019-05-08T00:46:30.359Z,99.99
2019-05-08T00:47:32.199Z,99.99
2019-05-08T00:48:32.463Z,99.99
2019-05-08T00:49:32.586Z,99.99
2019-05-08T00:50:32.643Z,99.99
2019-05-08T00:51:32.263Z,99.99
2019-05-08T00:52:32.375Z,99.99
2019-05-08T00:53:32.861Z,99.99
2019-05-08T00:54:32.152Z,99.99
2019-05-08T00:55:32.380Z,99.99
2019-05-08T00:56:32.423Z,99.99
2019-05-08T00:57:37.342Z,99.99
2019-05-08T00:58:32.384Z,99.99
2019-05-08T00:59:30.308Z,99.99
2019-05-08T01:00:30.304Z,99.99
2019-05-08T01:01:32.212Z,99.99
2019-05-08T01:02:32.505Z,99.99
2019-05-08T01:03:32.213Z,99.99
2019-05-08T01:04:31.757Z,99.99
2019-05-08T01:05:32.058Z,99.99
2019-05-08T01:06:32.087Z,99.99
2019-05-08T01:07:31.874Z,99.99
2019-05-08T01:08:32.556Z,99.99
2019-05-08T01:09:32.499Z,99.99
2019-05-08T01:10:30.269Z,99.99
2019-05-08T01:11:31.871Z,99.96
2019-05-08T01:12:32.250Z,99.99
2019-05-08T01:13:32.278Z,99.99
2019-05-08T01:14:32.578Z,99.99
2019-05-08T01:15:31.912Z,99.99
2019-05-08T01:16:32.103Z,99.99
2019-05-08T01:17:32.308Z,99.01
2019-05-08T01:18:32.089Z,99.20
2019-05-08T01:19:32.469Z,99.99
2019-05-08T01:20:32.558Z,99.99
2019-05-08T01:21:32.433Z,99.99
2019-05-08T01:22:30.213Z,99.99
2019-05-08T01:23:31.867Z,99.99
2019-05-08T01:24:32.172Z,99.99
2019-05-08T01:25:32.368Z,99.99
2019-05-08T01:26:30.217Z,99.99
2019-05-08T01:27:30.197Z,99.99
2019-05-08T01:28:32.074Z,99.99
2019-05-08T01:29:32.264Z,99.99
2019-05-08T01:30:30.177Z,99.99
2019-05-08T01:31:30.196Z,99.99
2019-05-08T01:32:30.165Z,99.99
2019-05-08T01:33:30.164Z,99.99
2019-05-08T01:34:30.162Z,99.99
2019-05-08T01:35:31.860Z,99.99
2019-05-08T01:36:31.634Z,99.99
2019-05-08T01:37:32.302Z,99.99
2019-05-08T01:38:32.095Z,99.99
2019-05-08T01:39:32.366Z,99.99
2019-05-08T01:40:30.129Z,99.99
2019-05-08T01:41:31.761Z,99.99
2019-05-08T01:42:31.981Z,99.99
2019-05-08T01:43:31.995Z,99.99
2019-05-08T01:44:32.230Z,99.99
2019-05-08T01:45:32.039Z,99.99
2019-05-08T01:46:30.109Z,99.99
2019-05-08T01:47:32.177Z,99.99
2019-05-08T01:48:32.409Z,99.99
2019-05-08T01:49:31.660Z,99.99
2019-05-08T01:50:31.937Z,99.99
2019-05-08T01:51:31.920Z,99.99
2019-05-08T01:52:32.424Z,99.99
2019-05-08T01:53:30.086Z,99.99
2019-05-08T01:54:30.078Z,99.99
2019-05-08T01:55:31.566Z,99.99
2019-05-08T01:56:32.257Z,99.99
2019-05-08T01:57:32.088Z,99.99
2019-05-08T01:58:30.063Z,99.99
2019-05-08T01:59:30.070Z,99.99
2019-05-08T02:00:30.054Z,99.99
2019-05-08T02:01:30.049Z,99.99
2019-05-08T02:02:30.079Z,99.99
2019-05-08T02:03:30.046Z,99.99
2019-05-08T02:04:30.040Z,99.99
2019-05-08T02:05:31.900Z,99.99
2019-05-08T02:06:32.107Z,99.99
2019-05-08T02:07:32.389Z,99.99
2019-05-08T02:08:30.026Z,99.99
2019-05-08T02:09:30.021Z,99.99
2019-05-08T02:10:31.873Z,99.99
2019-05-08T02:11:31.992Z,99.99
2019-05-08T02:12:32.045Z,99.99
2019-05-08T02:13:31.897Z,99.99
2019-05-08T02:14:31.433Z,99.99
2019-05-08T02:15:31.953Z,99.99
2019-05-08T02:16:32.021Z,99.99
2019-05-08T02:17:32.291Z,99.99
2019-05-08T02:18:32.206Z,99.99
2019-05-08T02:19:32.391Z,99.99
2019-05-08T02:20:29.978Z,99.99
2019-05-08T02:21:32.279Z,99.99
2019-05-08T02:22:32.260Z,99.99
2019-05-08T02:23:29.970Z,99.99
2019-05-08T02:24:31.913Z,99.99
2019-05-08T02:25:31.858Z,99.99
2019-05-08T02:26:32.157Z,99.99
2019-05-08T02:27:31.895Z,99.99
2019-05-08T02:28:29.954Z,99.99
2019-05-08T02:29:29.958Z,99.99
2019-05-08T02:30:29.952Z,99.99
2019-05-08T02:31:29.944Z,99.99
2019-05-08T02:32:29.978Z,99.99
2019-05-08T02:33:29.936Z,99.99
2019-05-08T02:34:29.931Z,99.99
2019-05-08T02:35:32.967Z,99.99
2019-05-08T02:36:32.941Z,99.99
2019-05-08T02:37:30.381Z,99.99
2019-05-08T02:38:30.685Z,99.99
2019-05-08T02:39:30.482Z,99.99
2019-05-08T02:40:30.699Z,99.99
2019-05-08T02:41:30.895Z,99.99
2019-05-08T02:42:30.383Z,99.99
2019-05-08T02:43:30.703Z,99.99
2019-05-08T02:44:31.020Z,99.99
2019-05-08T02:45:31.370Z,99.99
2019-05-08T02:46:30.455Z,99.99
2019-05-08T02:47:30.638Z,99.99
2019-05-08T02:48:30.471Z,99.99
2019-05-08T02:49:30.767Z,99.99
2019-05-08T02:50:31.580Z,99.99
2019-05-08T02:51:30.708Z,99.99
2019-05-08T02:52:31.276Z,99.99
2019-05-08T02:53:30.438Z,99.99
2019-05-08T02:54:31.053Z,99.99
2019-05-08T02:55:31.173Z,99.99
2019-05-08T02:56:31.529Z,99.99
2019-05-08T02:57:30.618Z,99.99
2019-05-08T02:58:47.909Z,99.99
2019-05-08T02:59:31.227Z,99.99
2019-05-08T03:00:30.755Z,99.99
2019-05-08T03:01:30.209Z,99.99
2019-05-08T03:02:31.113Z,99.99
2019-05-08T03:03:31.116Z,99.99
2019-05-08T03:04:32.107Z,99.99
2019-05-08T03:05:30.398Z,99.99
2019-05-08T03:06:30.229Z,99.99
2019-05-08T03:07:31.291Z,99.99
2019-05-08T03:08:31.156Z,99.99
2019-05-08T03:09:30.398Z,99.99
2019-05-08T03:10:30.408Z,99.99
2019-05-08T03:11:31.012Z,99.99
2019-05-08T03:12:31.265Z,99.99
2019-05-08T03:13:31.776Z,99.99
2019-05-08T03:14:30.185Z,99.99
2019-05-08T03:15:30.616Z,99.99
2019-05-08T03:16:31.577Z,99.99
2019-05-08T03:17:30.655Z,99.99
2019-05-08T03:18:30.908Z,99.99
2019-05-08T03:19:30.510Z,99.99
2019-05-08T03:20:31.505Z,99.99
2019-05-08T03:21:30.675Z,99.99
2019-05-08T03:22:30.755Z,99.99
2019-05-08T03:23:30.483Z,99.99
2019-05-08T03:24:30.426Z,99.99
2019-05-08T03:25:30.906Z,99.99
2019-05-08T03:26:30.924Z,99.99
2019-05-08T03:27:30.744Z,99.99
2019-05-08T03:28:31.347Z,99.99
2019-05-08T03:29:31.228Z,99.99
2019-05-08T03:30:33.699Z,99.99
2019-05-08T03:31:34.594Z,99.99
2019-05-08T03:32:34.387Z,99.99
2019-05-08T03:33:34.022Z,99.99
2019-05-08T03:34:34.984Z,99.99
2019-05-08T03:35:33.810Z,99.99
2019-05-08T03:36:34.104Z,99.99
2019-05-08T03:37:30.496Z,99.99
2019-05-08T03:38:30.912Z,99.99
2019-05-08T03:39:30.610Z,99.99
2019-05-08T03:40:30.850Z,99.99
2019-05-08T03:41:30.333Z,99.99
2019-05-08T03:42:31.034Z,99.99
2019-05-08T03:43:30.607Z,99.99
2019-05-08T03:44:31.570Z,99.99
2019-05-08T03:45:30.891Z,99.99
2019-05-08T03:46:30.776Z,99.99
2019-05-08T03:47:31.284Z,99.99
2019-05-08T03:48:30.177Z,99.99
2019-05-08T03:49:30.363Z,99.99
2019-05-08T03:50:30.754Z,99.99
2019-05-08T03:51:31.074Z,99.99
2019-05-08T03:52:30.940Z,99.99
2019-05-08T03:53:31.171Z,99.99
2019-05-08T03:54:30.504Z,99.99
2019-05-08T03:55:30.429Z,99.99
2019-05-08T03:56:30.660Z,99.99
2019-05-08T03:57:30.750Z,99.99
2019-05-08T03:58:30.263Z,99.99
2019-05-08T03:59:36.837Z,99.99
2019-05-08T04:00:30.508Z,99.99
2019-05-08T04:01:31.102Z,99.99
2019-05-08T04:02:30.289Z,99.99
2019-05-08T04:03:30.913Z,99.99
2019-05-08T04:04:30.657Z,99.99
2019-05-08T04:05:30.571Z,99.99
2019-05-08T04:06:30.831Z,99.99
2019-05-08T04:07:30.842Z,99.99
2019-05-08T04:08:31.254Z,99.99
2019-05-08T04:09:30.774Z,99.99
2019-05-08T04:10:30.718Z,99.99
2019-05-08T04:11:30.639Z,99.99
2019-05-08T04:12:31.153Z,99.99
2019-05-08T04:13:29.709Z,99.99
2019-05-08T04:14:30.596Z,99.99
2019-05-08T04:15:30.762Z,99.99
2019-05-08T04:16:31.085Z,99.99
2019-05-08T04:17:30.313Z,99.99
2019-05-08T04:18:30.574Z,99.99
2019-05-08T04:19:31.170Z,99.99
2019-05-08T04:20:30.356Z,99.99
2019-05-08T04:21:31.055Z,99.99
2019-05-08T04:22:30.890Z,99.99
2019-05-08T04:23:31.166Z,99.99
2019-05-08T04:24:30.968Z,99.99
2019-05-08T04:25:30.570Z,99.99
2019-05-08T04:26:31.142Z,99.99
2019-05-08T04:27:30.411Z,99.99
2019-05-08T04:28:30.412Z,99.99
2019-05-08T04:29:46.492Z,99.99
2019-05-08T04:30:30.799Z,99.99
2019-05-08T04:31:30.732Z,99.99
2019-05-08T04:32:30.345Z,99.99
2019-05-08T04:33:30.675Z,99.99
2019-05-08T04:34:30.338Z,99.99
2019-05-08T04:35:30.921Z,99.99
2019-05-08T04:36:31.405Z,99.99
2019-05-08T04:37:31.181Z,99.99
2019-05-08T04:38:31.127Z,99.99
2019-05-08T04:39:30.382Z,99.99
2019-05-08T04:40:30.430Z,99.99
2019-05-08T04:41:31.150Z,99.99
2019-05-08T04:42:31.152Z,99.99
2019-05-08T04:43:29.849Z,99.99
2019-05-08T04:44:30.464Z,99.99
2019-05-08T04:45:30.334Z,99.99
2019-05-08T04:46:30.785Z,99.99
2019-05-08T04:47:31.215Z,99.99
2019-05-08T04:48:31.662Z,99.99
2019-05-08T04:49:30.250Z,99.99
2019-05-08T04:50:30.594Z,99.99
2019-05-08T04:51:30.655Z,99.99
2019-05-08T04:52:30.263Z,99.99
2019-05-08T04:53:30.731Z,99.99
2019-05-08T04:54:30.666Z,99.99
2019-05-08T04:55:31.372Z,99.99
2019-05-08T04:56:29.969Z,99.99
2019-05-08T04:57:30.163Z,99.99
2019-05-08T04:58:30.011Z,99.99
2019-05-08T04:59:30.979Z,99.99
2019-05-08T05:00:31.682Z,99.99
2019-05-08T05:01:31.148Z,99.99
2019-05-08T05:02:31.119Z,99.99
2019-05-08T05:03:30.124Z,99.99
2019-05-08T05:04:30.158Z,99.99
2019-05-08T05:05:30.374Z,99.99
2019-05-08T05:06:30.325Z,99.99
2019-05-08T05:07:30.633Z,99.99
2019-05-08T05:08:30.537Z,99.99
2019-05-08T05:09:30.862Z,99.99
2019-05-08T05:10:30.594Z,99.99
2019-05-08T05:11:30.337Z,99.99
2019-05-08T05:12:30.264Z,99.99
2019-05-08T05:13:30.206Z,99.99
2019-05-08T05:14:30.193Z,99.99
2019-05-08T05:15:30.019Z,99.99
2019-05-08T05:16:29.924Z,99.99
2019-05-08T05:17:30.133Z,99.99
2019-05-08T05:18:30.622Z,99.99
2019-05-08T05:19:29.781Z,99.99
2019-05-08T05:20:29.511Z,99.99
2019-05-08T05:21:29.987Z,99.99
2019-05-08T05:22:29.470Z,99.99
2019-05-08T05:23:29.464Z,99.99
2019-05-08T05:24:30.276Z,99.99
2019-05-08T05:25:30.281Z,99.99
2019-05-08T05:26:29.391Z,99.99
2019-05-08T05:27:29.444Z,99.99
2019-05-08T05:28:29.586Z,99.99
2019-05-08T05:29:29.769Z,99.99
2019-05-08T05:30:29.693Z,99.99
2019-05-08T05:31:29.387Z,99.99
2019-05-08T05:32:29.924Z,99.99
2019-05-08T05:33:29.710Z,99.99
2019-05-08T05:34:30.242Z,99.99
2019-05-08T05:35:29.377Z,99.99
2019-05-08T05:36:29.354Z,99.99
2019-05-08T05:37:29.707Z,99.99
2019-05-08T05:38:29.797Z,99.99
2019-05-08T05:39:29.820Z,99.99
2019-05-08T05:40:29.364Z,99.99
2019-05-08T05:41:29.337Z,99.99
2019-05-08T05:42:29.417Z,99.99
2019-05-08T05:43:29.665Z,99.99
2019-05-08T05:44:30.190Z,99.99
2019-05-08T05:45:29.357Z,99.99
2019-05-08T05:46:29.345Z,99.99
2019-05-08T05:47:29.508Z,99.99
2019-05-08T05:48:29.891Z,99.99
2019-05-08T05:49:29.947Z,99.99
2019-05-08T05:50:29.864Z,99.99
2019-05-08T05:51:29.774Z,99.99
2019-05-08T05:52:29.954Z,99.99
2019-05-08T05:53:29.360Z,99.99
2019-05-08T05:54:29.536Z,99.99
2019-05-08T05:55:29.780Z,99.99
2019-05-08T05:56:30.086Z,99.99
2019-05-08T05:57:29.414Z,99.99
2019-05-08T05:58:30.010Z,99.99
2019-05-08T05:59:30.336Z,99.99
2019-05-08T06:00:38.975Z,99.99
2019-05-08T06:01:30.036Z,99.99
2019-05-08T06:02:30.245Z,99.99
2019-05-08T06:03:30.044Z,99.99
2019-05-08T06:04:29.714Z,99.99
2019-05-08T06:05:29.774Z,99.99
2019-05-08T06:06:29.401Z,99.99
2019-05-08T06:07:29.318Z,99.99
2019-05-08T06:08:29.493Z,99.99
2019-05-08T06:09:30.168Z,99.99
2019-05-08T06:10:29.580Z,99.99
2019-05-08T06:11:30.088Z,99.99
2019-05-08T06:12:29.306Z,99.94
2019-05-08T06:13:29.528Z,99.94
2019-05-08T06:14:30.035Z,98.99
2019-05-08T06:15:29.499Z,98.99
2019-05-08T06:16:29.793Z,99.55
2019-05-08T06:17:29.295Z,99.94
2019-05-08T06:18:29.801Z,99.08
2019-05-08T06:19:29.929Z,99.08
2019-05-08T06:20:30.384Z,98.36
2019-05-08T06:21:29.595Z,99.37
2019-05-08T06:22:29.541Z,99.27
2019-05-08T06:23:30.017Z,98.55
2019-05-08T06:24:29.791Z,98.60
2019-05-08T06:25:32.437Z,98.32
2019-05-08T06:26:29.990Z,98.51
2019-05-08T06:27:29.447Z,98.32
2019-05-08T06:28:29.284Z,97.65
2019-05-08T06:29:30.304Z,97.84
2019-05-08T06:30:29.382Z,96.60
2019-05-08T06:31:29.447Z,97.56
2019-05-08T06:32:29.864Z,96.22
2019-05-08T06:33:30.085Z,96.22
2019-05-08T06:34:30.439Z,95.89
2019-05-08T06:35:30.419Z,96.36
2019-05-08T06:36:29.522Z,95.61
2019-05-08T06:37:29.434Z,95.12
2019-05-08T06:38:29.613Z,95.12
2019-05-08T06:39:29.900Z,94.93
2019-05-08T06:40:30.057Z,94.60
2019-05-08T06:41:29.270Z,94.89
2019-05-08T06:42:29.374Z,94.51
2019-05-08T06:43:29.340Z,94.89
2019-05-08T06:44:29.464Z,94.79
2019-05-08T06:45:29.552Z,94.98
2019-05-08T06:46:29.955Z,93.27
2019-05-08T06:47:29.762Z,92.79
2019-05-08T06:48:29.439Z,94.12
2019-05-08T06:49:29.525Z,93.08
2019-05-08T06:50:29.914Z,93.36
2019-05-08T06:51:29.274Z,92.12
2019-05-08T06:52:29.756Z,92.79
2019-05-08T06:53:29.761Z,92.22
2019-05-08T06:54:29.269Z,92.41
2019-05-08T06:55:29.924Z,92.79
2019-05-08T06:56:29.862Z,92.26
2019-05-08T06:57:30.057Z,91.88
2019-05-08T06:58:29.570Z,92.55
2019-05-08T06:59:29.861Z,92.17
2019-05-08T07:00:30.174Z,92.46
2019-05-08T07:01:29.748Z,91.46
2019-05-08T07:02:29.828Z,91.93
2019-05-08T07:03:29.717Z,91.41
2019-05-08T07:04:29.517Z,91.41
2019-05-08T07:05:29.675Z,90.55
2019-05-08T07:06:29.557Z,91.16
2019-05-08T07:07:29.794Z,90.26
2019-05-08T07:08:35.433Z,90.02
2019-05-08T07:09:40.246Z,90.11
2019-05-08T07:10:29.435Z,89.35
2019-05-08T07:11:30.367Z,89.06
2019-05-08T07:12:29.306Z,88.78
2019-05-08T07:13:29.519Z,89.06
2019-05-08T07:14:29.970Z,88.49
2019-05-08T07:15:29.753Z,88.01
2019-05-08T07:16:29.722Z,88.40
2019-05-08T07:17:30.056Z,88.30
2019-05-08T07:18:30.273Z,86.96
2019-05-08T07:19:29.441Z,86.35
2019-05-08T07:20:29.586Z,86.73
2019-05-08T07:21:29.870Z,86.73
2019-05-08T07:22:32.180Z,87.15
2019-05-08T07:23:30.144Z,87.25
2019-05-08T07:24:29.688Z,86.77
2019-05-08T07:25:29.575Z,87.44
2019-05-08T07:26:30.330Z,87.40
2019-05-08T07:27:30.077Z,86.87
2019-05-08T07:28:30.548Z,86.68
2019-05-08T07:29:29.300Z,86.01
2019-05-08T07:30:29.916Z,86.58
2019-05-08T07:31:31.882Z,86.34
2019-05-08T07:32:29.591Z,86.72
2019-05-08T07:33:35.187Z,85.05
2019-05-08T07:34:30.110Z,84.09
2019-05-08T07:35:30.340Z,84.09
2019-05-08T07:36:30.638Z,84.56
2019-05-08T07:37:29.485Z,83.13
2019-05-08T07:38:29.507Z,83.23
2019-05-08T07:39:29.639Z,82.89
2019-05-08T07:40:29.868Z,82.98
2019-05-08T07:41:30.159Z,82.89
2019-05-08T07:42:29.308Z,82.35
2019-05-08T07:43:29.764Z,81.68
2019-05-08T07:44:32.662Z,80.92
2019-05-08T07:45:30.492Z,80.00
2019-05-08T07:46:30.274Z,80.44
2019-05-08T07:47:29.348Z,81.49
2019-05-08T07:48:29.908Z,80.63
2019-05-08T07:49:29.390Z,80.44
2019-05-08T07:50:29.878Z,79.96
2019-05-08T07:51:30.190Z,80.98
2019-05-08T07:52:29.364Z,80.79
2019-05-08T07:53:29.721Z,82.22
2019-05-08T07:54:29.995Z,82.22
2019-05-08T07:55:31.002Z,81.88
2019-05-08T07:56:30.129Z,80.79
2019-05-08T07:57:30.150Z,81.36
2019-05-08T07:58:29.478Z,81.07
2019-05-08T07:59:29.614Z,81.21
2019-05-08T08:00:30.251Z,80.88
2019-05-08T08:01:39.198Z,81.59
2019-05-08T08:02:29.422Z,80.58
2019-05-08T08:03:29.745Z,81.71
2019-05-08T08:04:29.859Z,78.22
2019-05-08T08:05:29.560Z,77.76
2019-05-08T08:06:29.768Z,78.47
2019-05-08T08:07:29.939Z,78.86
2019-05-08T08:08:30.080Z,78.47
2019-05-08T08:09:30.113Z,78.47
2019-05-08T08:10:29.588Z,77.94
2019-05-08T08:11:29.689Z,76.31
2019-05-08T08:12:29.580Z,76.08
2019-05-08T08:13:30.027Z,77.94
2019-05-08T08:14:29.911Z,76.75
2019-05-08T08:15:30.101Z,77.90
2019-05-08T08:16:29.963Z,77.70
2019-05-08T08:17:29.942Z,77.00
2019-05-08T08:18:29.949Z,78.78
2019-05-08T08:19:30.219Z,78.34
2019-05-08T08:20:30.137Z,78.91
2019-05-08T08:21:30.513Z,78.14
2019-05-08T08:22:31.312Z,78.39
2019-05-08T08:23:29.999Z,79.10
2019-05-08T08:24:30.446Z,78.81
2019-05-08T08:25:30.111Z,78.38
2019-05-08T08:26:29.724Z,77.99
2019-05-08T08:27:29.606Z,77.65
2019-05-08T08:28:29.671Z,77.57
2019-05-08T08:29:29.838Z,77.75
2019-05-08T08:30:29.677Z,76.31
2019-05-08T08:31:30.433Z,76.94
2019-05-08T08:32:29.496Z,77.51
2019-05-08T08:33:30.043Z,76.84
2019-05-08T08:34:29.802Z,77.90
2019-05-08T08:35:35.199Z,77.48
2019-05-08T08:36:34.748Z,78.63
2019-05-08T08:37:29.558Z,77.76
2019-05-08T08:38:30.804Z,78.43
2019-05-08T08:39:29.939Z,77.57
2019-05-08T08:40:29.742Z,77.80
2019-05-08T08:41:30.334Z,77.90
2019-05-08T08:42:29.575Z,77.99
2019-05-08T08:43:30.216Z,77.90
2019-05-08T08:44:29.572Z,77.57
2019-05-08T08:45:29.557Z,77.67
2019-05-08T08:46:29.955Z,78.28
2019-05-08T08:47:29.611Z,78.57
2019-05-08T08:48:29.579Z,78.05
2019-05-08T08:49:30.125Z,78.53
2019-05-08T08:50:30.103Z,77.76
2019-05-08T08:51:29.587Z,78.58
2019-05-08T08:52:29.799Z,78.68
2019-05-08T08:53:29.627Z,78.81
2019-05-08T08:54:29.739Z,79.06
2019-05-08T08:55:29.621Z,78.91
2019-05-08T08:56:29.832Z,79.14
2019-05-08T08:57:29.820Z,78.70
2019-05-08T08:58:29.616Z,78.03
2019-05-08T08:59:30.165Z,76.69
2019-05-08T09:00:29.898Z,77.51
2019-05-08T09:01:29.628Z,78.42
2019-05-08T09:02:34.719Z,77.59
2019-05-08T09:03:29.636Z,76.50
2019-05-08T09:04:30.143Z,77.13
2019-05-08T09:05:30.956Z,77.42
2019-05-08T09:06:29.921Z,77.42
2019-05-08T09:07:30.972Z,78.38
2019-05-08T09:08:29.659Z,78.47
2019-05-08T09:09:30.196Z,78.34
2019-05-08T09:10:29.874Z,78.81
2019-05-08T09:11:29.719Z,78.91
2019-05-08T09:12:29.702Z,79.05
2019-05-08T09:13:30.284Z,78.24
2019-05-08T09:14:29.673Z,79.77
2019-05-08T09:15:30.128Z,79.58
2019-05-08T09:16:31.861Z,80.40
2019-05-08T09:17:30.025Z,80.11
2019-05-08T09:18:30.237Z,80.21
2019-05-08T09:19:42.022Z,80.50
2019-05-08T09:20:29.832Z,80.25
2019-05-08T09:21:29.690Z,80.16
2019-05-08T09:22:29.723Z,80.16
2019-05-08T09:23:30.008Z,79.83
2019-05-08T09:24:35.236Z,80.54
2019-05-08T09:25:32.078Z,80.44
2019-05-08T09:26:29.706Z,80.44
2019-05-08T09:27:30.099Z,80.54
2019-05-08T09:28:29.938Z,80.67
2019-05-08T09:29:29.717Z,80.16
2019-05-08T09:30:30.071Z,79.96
2019-05-08T09:31:30.702Z,79.39
2019-05-08T09:32:34.284Z,79.49
2019-05-08T09:33:29.995Z,79.87
2019-05-08T09:34:29.727Z,80.25
2019-05-08T09:35:30.352Z,81.11
2019-05-08T09:36:32.474Z,80.16
2019-05-08T09:37:29.763Z,80.06
2019-05-08T09:38:31.724Z,80.25
2019-05-08T09:39:29.903Z,80.54
2019-05-08T09:40:30.471Z,80.63
2019-05-08T09:41:34.120Z,80.25
2019-05-08T09:42:31.630Z,80.06
2019-05-08T09:43:29.754Z,80.44
2019-05-08T09:44:30.104Z,80.19
2019-05-08T09:45:29.947Z,80.10
2019-05-08T09:46:30.059Z,79.91
2019-05-08T09:47:29.946Z,80.04
2019-05-08T09:48:29.854Z,79.57
2019-05-08T09:49:30.182Z,79.05
2019-05-08T09:50:32.237Z,79.24
2019-05-08T09:51:31.832Z,79.37
2019-05-08T09:52:33.753Z,78.84
2019-05-08T09:53:31.740Z,78.55
2019-05-08T09:54:30.272Z,77.97
2019-05-08T09:55:30.723Z,76.64
2019-05-08T09:56:29.783Z,76.25
2019-05-08T09:57:30.422Z,76.98
2019-05-08T09:58:30.086Z,77.50
2019-05-08T09:59:29.803Z,76.79
2019-05-08T10:00:30.489Z,77.31
2019-05-08T10:01:29.891Z,77.21
2019-05-08T10:02:34.004Z,77.88
2019-05-08T10:03:29.986Z,77.97
2019-05-08T10:04:29.817Z,76.21
2019-05-08T10:05:29.823Z,77.40
2019-05-08T10:06:30.618Z,77.44
2019-05-08T10:07:30.430Z,76.67
2019-05-08T10:08:29.851Z,75.71
2019-05-08T10:09:30.000Z,76.19
2019-05-08T10:10:30.429Z,76.00
2019-05-08T10:11:35.405Z,75.37
2019-05-08T10:12:30.040Z,74.98
2019-05-08T10:13:29.851Z,76.14
2019-05-08T10:14:29.855Z,75.14
2019-05-08T10:15:30.028Z,74.76
2019-05-08T10:16:30.438Z,74.47
2019-05-08T10:17:29.972Z,74.18
2019-05-08T10:18:30.718Z,74.22
2019-05-08T10:19:29.893Z,74.79
2019-05-08T10:20:34.369Z,75.56
2019-05-08T10:21:29.900Z,73.74
2019-05-08T10:22:29.936Z,73.97
2019-05-08T10:23:30.323Z,73.10
2019-05-08T10:24:30.425Z,72.85
2019-05-08T10:25:32.256Z,72.14
2019-05-08T10:26:30.283Z,73.16
2019-05-08T10:27:29.970Z,73.30
2019-05-08T10:28:30.099Z,72.05
2019-05-08T10:29:30.292Z,71.70
2019-05-08T10:30:29.953Z,71.93
2019-05-08T10:31:29.961Z,70.87
2019-05-08T10:32:29.999Z,71.77
2019-05-08T10:33:29.977Z,70.23
2019-05-08T10:34:29.981Z,71.25
2019-05-08T10:35:30.024Z,70.29
2019-05-08T10:36:30.219Z,70.58
2019-05-08T10:37:30.034Z,70.52
2019-05-08T10:38:30.816Z,70.23
2019-05-08T10:39:30.033Z,70.23
2019-05-08T10:40:30.029Z,70.27
2019-05-08T10:41:30.076Z,69.40
2019-05-08T10:42:30.048Z,68.35
2019-05-08T10:43:30.054Z,68.31
2019-05-08T10:44:30.241Z,68.85
2019-05-08T10:45:31.778Z,68.95
2019-05-08T10:46:30.312Z,69.65
2019-05-08T10:47:30.537Z,70.19
2019-05-08T10:48:30.103Z,70.80
2019-05-08T10:49:30.259Z,71.44
2019-05-08T10:50:30.116Z,72.33
2019-05-08T10:51:30.573Z,72.81
2019-05-08T10:52:30.128Z,73.04
2019-05-08T10:53:30.803Z,72.63
2019-05-08T10:54:30.140Z,73.10
2019-05-08T10:55:30.149Z,71.76
2019-05-08T10:56:30.155Z,71.95
2019-05-08T10:57:30.687Z,72.53
2019-05-08T10:58:30.178Z,71.66
2019-05-08T10:59:30.181Z,71.37
2019-05-08T11:00:30.263Z,71.70
2019-05-08T11:01:30.215Z,71.31
2019-05-08T11:02:30.353Z,71.76
2019-05-08T11:03:30.339Z,72.05
2019-05-08T11:04:30.204Z,71.95
2019-05-08T11:05:30.211Z,71.57
2019-05-08T11:06:30.212Z,72.33
2019-05-08T11:07:30.247Z,71.57
2019-05-08T11:08:31.129Z,72.72
2019-05-08T11:09:30.443Z,73.00
2019-05-08T11:10:30.243Z,72.81
2019-05-08T11:11:30.789Z,72.81
2019-05-08T11:12:30.245Z,73.10
2019-05-08T11:13:30.249Z,72.81
2019-05-08T11:14:30.255Z,73.26
2019-05-08T11:15:30.261Z,73.45
2019-05-08T11:16:30.294Z,73.83
2019-05-08T11:17:30.330Z,76.62
2019-05-08T11:18:33.262Z,75.79
2019-05-08T11:19:30.278Z,75.50
2019-05-08T11:20:30.283Z,75.02
2019-05-08T11:21:30.905Z,73.97
2019-05-08T11:22:30.286Z,74.02
2019-05-08T11:23:30.295Z,74.76
2019-05-08T11:24:30.296Z,75.33
2019-05-08T11:25:30.461Z,76.19
2019-05-08T11:26:30.334Z,76.19
2019-05-08T11:27:32.257Z,76.10
2019-05-08T11:28:30.365Z,76.57
2019-05-08T11:29:30.419Z,77.06
2019-05-08T11:30:30.467Z,76.92
2019-05-08T11:31:30.329Z,77.31
2019-05-08T11:32:33.740Z,78.17
2019-05-08T11:33:35.753Z,78.17
2019-05-08T11:34:30.327Z,78.59
2019-05-08T11:35:31.043Z,78.27
2019-05-08T11:36:31.134Z,78.45
2019-05-08T11:37:32.399Z,79.45
2019-05-08T11:38:30.350Z,79.64
2019-05-08T11:39:30.386Z,79.07
2019-05-08T11:40:30.383Z,79.41
2019-05-08T11:41:30.353Z,79.99
2019-05-08T11:42:30.890Z,81.37
2019-05-08T11:43:31.004Z,80.60
2019-05-08T11:44:32.474Z,79.16
2019-05-08T11:45:30.388Z,79.22
2019-05-08T11:46:30.523Z,79.89
2019-05-08T11:47:30.365Z,79.80
2019-05-08T11:48:30.399Z,79.41
2019-05-08T11:49:30.379Z,79.80
2019-05-08T11:50:30.402Z,79.64
2019-05-08T11:51:30.374Z,80.12
2019-05-08T11:52:30.380Z,78.78
2019-05-08T11:53:31.264Z,79.80
2019-05-08T11:54:30.413Z,78.74
2019-05-08T11:55:30.391Z,79.80
2019-05-08T11:56:30.685Z,79.89
2019-05-08T11:57:30.480Z,78.74
2019-05-08T11:58:30.398Z,79.32
2019-05-08T11:59:30.395Z,80.08
2019-05-08T12:00:30.397Z,81.56
2019-05-08T12:01:32.214Z,81.56
2019-05-08T12:02:30.406Z,81.43
2019-05-08T12:03:30.403Z,82.57
2019-05-08T12:04:30.406Z,87.60
2019-05-08T12:05:30.409Z,87.79
2019-05-08T12:06:30.455Z,85.64
2019-05-08T12:07:30.421Z,85.93
2019-05-08T12:08:30.424Z,88.61
2019-05-08T12:09:30.791Z,88.32
2019-05-08T12:10:30.420Z,87.13
2019-05-08T12:11:30.802Z,89.09
2019-05-08T12:12:30.431Z,91.49
2019-05-08T12:13:30.465Z,92.15
2019-05-08T12:14:30.430Z,92.54
2019-05-08T12:15:30.487Z,94.07
2019-05-08T12:16:31.263Z,93.11
2019-05-08T12:17:36.539Z,90.86
2019-05-08T12:18:30.443Z,90.63
2019-05-08T12:19:32.260Z,94.31
2019-05-08T12:20:30.881Z,94.17
2019-05-08T12:21:30.476Z,97.66
2019-05-08T12:22:30.446Z,97.18
2019-05-08T12:23:30.445Z,97.95
2019-05-08T12:24:30.445Z,94.74
2019-05-08T12:25:30.521Z,95.41
2019-05-08T12:26:33.557Z,95.70
2019-05-08T12:27:30.449Z,98.95
2019-05-08T12:28:30.451Z,96.94
2019-05-08T12:29:30.603Z,97.23
2019-05-08T12:30:30.456Z,97.80
2019-05-08T12:31:30.491Z,97.71
2019-05-08T12:32:30.466Z,96.66
2019-05-08T12:33:30.692Z,97.33
2019-05-08T12:34:30.462Z,96.56
2019-05-08T12:35:30.464Z,97.52
2019-05-08T12:36:30.498Z,99.43
2019-05-08T12:37:30.463Z,99.99
2019-05-08T12:38:30.611Z,99.99
2019-05-08T12:39:30.473Z,98.95
2019-05-08T12:40:30.472Z,98.09
2019-05-08T12:41:30.499Z,98.09
2019-05-08T12:42:30.472Z,99.52
2019-05-08T12:43:31.269Z,97.71
2019-05-08T12:44:30.473Z,98.28
2019-05-08T12:45:30.480Z,99.43
2019-05-08T12:46:30.511Z,98.09
2019-05-08T12:47:30.518Z,98.57
2019-05-08T12:48:30.942Z,99.33
2019-05-08T12:49:30.495Z,97.61
2019-05-08T12:50:30.511Z,99.05
2019-05-08T12:51:30.519Z,97.71
2019-05-08T12:52:30.500Z,98.66